Time;durP1;ratioP1;P1;durP2;ratioP2;P2;SDS_P1;SDS_P2;PMS_P1;PMS_P2;Temp;Humidity;BMP_temperature;BMP_pressure;BME280_temperature;BME280_humidity;BME280_pressure;Samples;Min_cycle;Max_cycle;Signal;HPM_P1;HPM_P2
2022/10/18 00:01:34;;;;;;;0.00;0.00;;;;;;;;;;5124874;27;20458;-78
2022/10/18 00:04:00;;;;;;;0.10;0.10;;;;;;;;;;5147530;27;20420;-78
2022/10/18 00:06:26;;;;;;;0.00;0.00;;;;;;;;;;5139259;27;21015;-78
2022/10/18 00:08:52;;;;;;;0.08;0.08;;;;;;;;;;5120009;27;20776;-79
2022/10/18 00:11:18;;;;;;;0.00;0.00;;;;;;;;;;5145166;27;20419;-79
2022/10/18 00:13:44;;;;;;;0.10;0.10;;;;;;;;;;5138517;27;20967;-78
2022/10/18 00:16:11;;;;;;;0.00;0.00;;;;;;;;;;5141781;27;20750;-78
2022/10/18 00:18:38;;;;;;;0.10;0.10;;;;;;;;;;5135124;27;20768;-78
2022/10/18 00:21:09;;;;;;;0.10;0.10;;;;;;;;;;5147763;27;21172;-79
2022/10/18 00:23:35;;;;;;;0.10;0.10;;;;;;;;;;5136007;27;20420;-78
2022/10/18 00:26:12;;;;;;;0.00;0.00;;;;;;;;;;5134456;27;20447;-79
2022/10/18 00:28:38;;;;;;;0.10;0.10;;;;;;;;;;5129526;27;20434;-78
2022/10/18 00:31:15;;;;;;;0.00;0.00;;;;;;;;;;5139269;27;20407;-79
2022/10/18 00:33:42;;;;;;;0.00;0.00;;;;;;;;;;5127713;27;20451;-78
2022/10/18 00:36:08;;;;;;;0.00;0.00;;;;;;;;;;5143399;27;20778;-79
2022/10/18 00:38:35;;;;;;;0.10;0.10;;;;;;;;;;5142442;27;20849;-78
2022/10/18 00:41:01;;;;;;;0.10;0.10;;;;;;;;;;5125078;27;20500;-79
2022/10/18 00:43:27;;;;;;;0.00;0.00;;;;;;;;;;5138402;27;20414;-79
2022/10/18 00:45:53;;;;;;;0.20;0.20;;;;;;;;;;5143910;27;20450;-78
2022/10/18 00:48:20;;;;;;;0.00;0.00;;;;;;;;;;5134247;27;20500;-78
2022/10/18 00:50:47;;;;;;;0.10;0.10;;;;;;;;;;5141643;27;20411;-78
2022/10/18 00:53:16;;;;;;;0.10;0.10;;;;;;;;;;5146446;27;20499;-78
2022/10/18 00:55:42;;;;;;;0.00;0.00;;;;;;;;;;5134740;27;20460;-79
2022/10/18 00:58:09;;;;;;;0.00;0.00;;;;;;;;;;5125264;27;20467;-78
2022/10/18 01:00:38;;;;;;;0.10;0.10;;;;;;;;;;5141552;27;20413;-78
2022/10/18 01:03:04;;;;;;;0.20;0.20;;;;;;;;;;5141975;27;20428;-78
2022/10/18 01:05:31;;;;;;;0.00;0.00;;;;;;;;;;5137356;27;20921;-78
2022/10/18 01:08:23;;;;;;;0.00;0.00;;;;;;;;;;5134197;27;20419;-79
2022/10/18 01:10:54;;;;;;;0.03;0.03;;;;;;;;;;5123994;27;20423;-78
2022/10/18 01:13:32;;;;;;;0.10;0.10;;;;;;;;;;5123160;27;20733;-78
2022/10/18 01:16:00;;;;;;;0.10;0.10;;;;;;;;;;5142890;27;20415;-78
2022/10/18 01:18:33;;;;;;;0.00;0.00;;;;;;;;;;5136452;27;20443;-78
2022/10/18 01:21:08;;;;;;;0.10;0.10;;;;;;;;;;5140245;27;20425;-78
2022/10/18 01:23:53;;;;;;;0.10;0.10;;;;;;;;;;5136315;27;20587;-80
2022/10/18 01:26:38;;;;;;;0.40;0.40;;;;;;;;;;5144632;27;20982;-78
2022/10/18 01:29:14;;;;;;;0.00;0.00;;;;;;;;;;5136242;27;20481;-78
2022/10/18 01:31:49;;;;;;;0.00;0.00;;;;;;;;;;5135043;27;20422;-80
2022/10/18 01:34:17;;;;;;;0.00;0.00;;;;;;;;;;5141698;27;20526;-78
2022/10/18 01:36:46;;;;;;;0.00;0.00;;;;;;;;;;5136391;27;20948;-80
2022/10/18 01:39:14;;;;;;;0.10;0.10;;;;;;;;;;5132350;27;20903;-78
2022/10/18 01:41:41;;;;;;;0.00;0.00;;;;;;;;;;5133480;27;20416;-78
2022/10/18 01:44:09;;;;;;;0.00;0.00;;;;;;;;;;5141616;27;20412;-77
2022/10/18 01:46:36;;;;;;;0.10;0.10;;;;;;;;;;5142990;27;20431;-79
2022/10/18 01:49:03;;;;;;;0.10;0.10;;;;;;;;;;5139166;27;20448;-78
2022/10/18 01:51:30;;;;;;;0.00;0.00;;;;;;;;;;5157019;27;20416;-78
2022/10/18 01:53:57;;;;;;;0.10;0.10;;;;;;;;;;5148515;27;20509;-78
2022/10/18 01:56:23;;;;;;;0.20;0.20;;;;;;;;;;5153767;27;20415;-78
2022/10/18 01:59:07;;;;;;;0.00;0.00;;;;;;;;;;5118328;27;20432;-79
2022/10/18 02:01:33;;;;;;;0.00;0.00;;;;;;;;;;5123076;27;20435;-81
2022/10/18 02:04:05;;;;;;;0.00;0.00;;;;;;;;;;5120495;27;20509;-78
2022/10/18 02:06:35;;;;;;;0.00;0.00;;;;;;;;;;5151480;27;20415;-79
2022/10/18 02:09:09;;;;;;;0.00;0.00;;;;;;;;;;5148213;27;20461;-78
2022/10/18 02:11:37;;;;;;;0.00;0.00;;;;;;;;;;5133932;27;20443;-79
2022/10/18 02:14:06;;;;;;;0.10;0.10;;;;;;;;;;5141066;27;20417;-79
2022/10/18 02:16:38;;;;;;;0.10;0.10;;;;;;;;;;5155177;27;20442;-78
2022/10/18 02:19:16;;;;;;;0.00;0.00;;;;;;;;;;5129346;27;20417;-78
2022/10/18 02:21:43;;;;;;;0.10;0.10;;;;;;;;;;5145069;27;20419;-78
2022/10/18 02:24:10;;;;;;;0.10;0.10;;;;;;;;;;5142237;27;20510;-80
2022/10/18 02:26:37;;;;;;;0.00;0.00;;;;;;;;;;5147593;27;20039;-78
2022/10/18 02:29:03;;;;;;;0.10;0.10;;;;;;;;;;5152616;27;20057;-78
2022/10/18 02:31:29;;;;;;;0.00;0.00;;;;;;;;;;5152535;27;20041;-78
2022/10/18 02:34:04;;;;;;;0.00;0.00;;;;;;;;;;5135341;27;20039;-79
2022/10/18 02:36:36;;;;;;;0.57;0.20;;;;;;;;;;5138389;27;20429;-81
2022/10/18 02:39:04;;;;;;;0.00;0.00;;;;;;;;;;5130358;27;20076;-78
2022/10/18 02:41:30;;;;;;;0.38;0.38;;;;;;;;;;5137845;27;20389;-78
2022/10/18 02:43:56;;;;;;;0.10;0.10;;;;;;;;;;5140536;27;20069;-79
2022/10/18 02:46:23;;;;;;;0.30;0.30;;;;;;;;;;5126091;27;20057;-79
2022/10/18 02:48:49;;;;;;;0.10;0.10;;;;;;;;;;5124175;27;20081;-79
2022/10/18 02:51:15;;;;;;;0.00;0.00;;;;;;;;;;5121302;27;20397;-80
2022/10/18 02:53:41;;;;;;;0.10;0.10;;;;;;;;;;5138973;27;20122;-79
2022/10/18 02:56:07;;;;;;;0.10;0.10;;;;;;;;;;5117904;27;20068;-79
2022/10/18 02:58:34;;;;;;;0.10;0.10;;;;;;;;;;5133979;27;20112;-79
2022/10/18 03:01:00;;;;;;;0.10;0.10;;;;;;;;;;5138597;27;20088;-78
2022/10/18 03:03:26;;;;;;;0.00;0.00;;;;;;;;;;5134856;27;20042;-79
2022/10/18 03:05:52;;;;;;;0.10;0.10;;;;;;;;;;5135613;27;20096;-80
2022/10/18 03:08:21;;;;;;;0.00;0.00;;;;;;;;;;5126962;27;20035;-79
2022/10/18 03:10:47;;;;;;;0.00;0.00;;;;;;;;;;5148335;27;20034;-78
2022/10/18 03:13:13;;;;;;;0.10;0.10;;;;;;;;;;5138771;27;20121;-79
2022/10/18 03:15:39;;;;;;;0.00;0.00;;;;;;;;;;5119378;27;20545;-80
2022/10/18 03:18:05;;;;;;;0.00;0.00;;;;;;;;;;5139729;27;20049;-78
2022/10/18 03:20:32;;;;;;;0.10;0.10;;;;;;;;;;5147622;27;20099;-78
2022/10/18 03:22:58;;;;;;;0.00;0.00;;;;;;;;;;5127376;27;20557;-78
2022/10/18 03:25:24;;;;;;;0.00;0.00;;;;;;;;;;5137271;27;20043;-78
2022/10/18 03:27:51;;;;;;;0.10;0.10;;;;;;;;;;5138613;27;20042;-79
2022/10/18 03:30:17;;;;;;;0.17;0.17;;;;;;;;;;5133232;27;20046;-78
2022/10/18 03:32:43;;;;;;;;;;;;;;;;;;5143755;27;20441;-78
2022/10/18 03:35:09;;;;;;;0.00;0.00;;;;;;;;;;5159488;27;19927;-78
2022/10/18 03:37:36;;;;;;;0.10;0.10;;;;;;;;;;5143358;27;20348;-80
2022/10/18 03:40:02;;;;;;;0.10;0.10;;;;;;;;;;5138069;27;20035;-80
2022/10/18 03:42:28;;;;;;;0.00;0.00;;;;;;;;;;5142494;27;20042;-78
2022/10/18 03:44:54;;;;;;;0.00;0.00;;;;;;;;;;5136133;27;20521;-80
2022/10/18 03:47:20;;;;;;;0.10;0.10;;;;;;;;;;5142953;27;20477;-79
2022/10/18 03:49:46;;;;;;;0.00;0.00;;;;;;;;;;5139976;27;20106;-80
2022/10/18 03:52:12;;;;;;;0.10;0.10;;;;;;;;;;5142418;27;20367;-78
2022/10/18 03:54:38;;;;;;;0.10;0.10;;;;;;;;;;5141523;27;20039;-78
2022/10/18 03:57:04;;;;;;;0.10;0.10;;;;;;;;;;5127750;27;20277;-79
2022/10/18 03:59:30;;;;;;;0.00;0.00;;;;;;;;;;5137377;27;20074;-78
2022/10/18 04:01:56;;;;;;;0.10;0.10;;;;;;;;;;5122285;27;20484;-80
2022/10/18 04:04:22;;;;;;;0.10;0.10;;;;;;;;;;5142867;27;20055;-78
2022/10/18 04:06:48;;;;;;;0.10;0.10;;;;;;;;;;5142808;27;20370;-79
2022/10/18 04:09:14;;;;;;;0.00;0.00;;;;;;;;;;5141212;27;20118;-78
2022/10/18 04:11:40;;;;;;;0.10;0.10;;;;;;;;;;5147166;27;20155;-79
2022/10/18 04:14:07;;;;;;;0.00;0.00;;;;;;;;;;5148033;27;20067;-77
2022/10/18 04:16:33;;;;;;;0.00;0.00;;;;;;;;;;5154476;27;20424;-77
2022/10/18 04:18:59;;;;;;;0.13;0.13;;;;;;;;;;5133578;27;20039;-82
2022/10/18 04:21:25;;;;;;;0.10;0.10;;;;;;;;;;5133861;27;20090;-81
2022/10/18 04:23:51;;;;;;;0.10;0.10;;;;;;;;;;5120746;27;20061;-81
2022/10/18 04:26:17;;;;;;;0.10;0.10;;;;;;;;;;5130144;27;20047;-80
2022/10/18 04:28:43;;;;;;;0.10;0.10;;;;;;;;;;5140435;27;20454;-78
2022/10/18 04:31:09;;;;;;;0.10;0.10;;;;;;;;;;5141753;27;20553;-79
2022/10/18 04:33:36;;;;;;;0.10;0.10;;;;;;;;;;5142614;27;20050;-79
2022/10/18 04:36:02;;;;;;;0.00;0.00;;;;;;;;;;5142249;27;20093;-79
2022/10/18 04:38:28;;;;;;;4.28;0.65;;;;;;;;;;5147383;27;20042;-80
2022/10/18 04:40:54;;;;;;;0.00;0.00;;;;;;;;;;5128340;27;20038;-79
2022/10/18 04:43:20;;;;;;;0.10;0.10;;;;;;;;;;5140136;27;20086;-79
2022/10/18 04:45:47;;;;;;;0.00;0.00;;;;;;;;;;5138501;27;20042;-78
2022/10/18 04:48:17;;;;;;;0.10;0.10;;;;;;;;;;5127609;27;20475;-79
2022/10/18 04:50:43;;;;;;;0.10;0.10;;;;;;;;;;5154145;27;20042;-80
2022/10/18 04:53:09;;;;;;;0.10;0.10;;;;;;;;;;5146974;27;20745;-79
2022/10/18 04:55:35;;;;;;;0.10;0.10;;;;;;;;;;5128050;27;20064;-79
2022/10/18 04:58:01;;;;;;;0.00;0.00;;;;;;;;;;5155379;27;20061;-79
2022/10/18 05:00:27;;;;;;;0.00;0.00;;;;;;;;;;5141824;27;20549;-79
2022/10/18 05:02:57;;;;;;;0.00;0.00;;;;;;;;;;5154169;27;20430;-80
2022/10/18 05:05:23;;;;;;;0.10;0.10;;;;;;;;;;5156351;27;20487;-79
2022/10/18 05:07:49;;;;;;;0.10;0.10;;;;;;;;;;5154714;27;20464;-80
2022/10/18 05:10:15;;;;;;;0.00;0.00;;;;;;;;;;5132736;27;20419;-79
2022/10/18 05:12:42;;;;;;;0.00;0.00;;;;;;;;;;5145469;27;20045;-80
2022/10/18 05:15:09;;;;;;;0.40;0.40;;;;;;;;;;5137649;27;20050;-80
2022/10/18 05:17:35;;;;;;;0.10;0.10;;;;;;;;;;5156360;27;20404;-79
2022/10/18 05:20:01;;;;;;;0.00;0.00;;;;;;;;;;5170109;27;20134;-79
2022/10/18 05:22:27;;;;;;;0.00;0.00;;;;;;;;;;5124621;27;20049;-79
2022/10/18 05:24:53;;;;;;;0.10;0.10;;;;;;;;;;5157052;27;20038;-79
2022/10/18 05:27:19;;;;;;;0.00;0.00;;;;;;;;;;5134705;27;20068;-79
2022/10/18 05:29:45;;;;;;;0.10;0.10;;;;;;;;;;5136678;27;20038;-79
2022/10/18 05:32:11;;;;;;;0.10;0.10;;;;;;;;;;5123808;27;20049;-79
2022/10/18 05:34:37;;;;;;;0.10;0.10;;;;;;;;;;5150032;27;20042;-79
2022/10/18 05:37:03;;;;;;;0.10;0.10;;;;;;;;;;5155299;27;20437;-79
2022/10/18 05:39:29;;;;;;;0.00;0.00;;;;;;;;;;5141953;27;20443;-79
2022/10/18 05:41:56;;;;;;;0.00;0.00;;;;;;;;;;5148092;27;20415;-80
2022/10/18 05:44:23;;;;;;;0.10;0.10;;;;;;;;;;5154388;27;20430;-79
2022/10/18 05:46:49;;;;;;;0.10;0.10;;;;;;;;;;5155581;27;20427;-79
2022/10/18 05:49:15;;;;;;;0.00;0.00;;;;;;;;;;5145684;27;20423;-78
2022/10/18 05:51:41;;;;;;;0.10;0.10;;;;;;;;;;5149302;27;20893;-79
2022/10/18 05:54:07;;;;;;;0.10;0.10;;;;;;;;;;5128174;27;20459;-79
2022/10/18 05:56:33;;;;;;;0.10;0.10;;;;;;;;;;5152308;27;20909;-79
2022/10/18 05:58:59;;;;;;;0.38;0.38;;;;;;;;;;5114402;27;20401;-79
2022/10/18 06:01:25;;;;;;;0.10;0.10;;;;;;;;;;5094670;28;20040;-80
2022/10/18 06:03:51;;;;;;;0.00;0.00;;;;;;;;;;5109536;27;20062;-79
2022/10/18 06:06:17;;;;;;;0.10;0.10;;;;;;;;;;5120643;27;20100;-79
2022/10/18 06:08:43;;;;;;;0.10;0.10;;;;;;;;;;5107812;27;20500;-79
2022/10/18 06:11:14;;;;;;;0.00;0.00;;;;;;;;;;5129203;27;20047;-79
2022/10/18 06:13:44;;;;;;;0.00;0.00;;;;;;;;;;5116535;27;20096;-79
2022/10/18 06:16:10;;;;;;;0.57;0.57;;;;;;;;;;5118647;27;20123;-79
2022/10/18 06:18:37;;;;;;;0.10;0.10;;;;;;;;;;5120626;27;20496;-79
2022/10/18 06:21:03;;;;;;;0.10;0.10;;;;;;;;;;5148650;27;20089;-79
2022/10/18 06:23:29;;;;;;;0.00;0.00;;;;;;;;;;5136678;27;20505;-79
2022/10/18 06:26:02;;;;;;;0.10;0.10;;;;;;;;;;5126960;27;20039;-79
2022/10/18 06:28:29;;;;;;;0.00;0.00;;;;;;;;;;5130336;27;20478;-78
2022/10/18 06:30:58;;;;;;;0.00;0.00;;;;;;;;;;5124660;27;20331;-81
2022/10/18 06:33:24;;;;;;;0.10;0.10;;;;;;;;;;5111876;27;20053;-79
2022/10/18 06:35:58;;;;;;;0.10;0.10;;;;;;;;;;5108503;27;20483;-79
2022/10/18 06:38:24;;;;;;;0.00;0.00;;;;;;;;;;5146552;27;20498;-79
2022/10/18 06:40:50;;;;;;;0.00;0.00;;;;;;;;;;5130732;27;20758;-78
2022/10/18 06:43:16;;;;;;;0.00;0.00;;;;;;;;;;5139427;27;20419;-78
2022/10/18 06:45:42;;;;;;;0.00;0.00;;;;;;;;;;5121273;27;20419;-78
2022/10/18 06:48:08;;;;;;;0.00;0.00;;;;;;;;;;5124589;27;20501;-78
2022/10/18 06:50:34;;;;;;;0.15;0.15;;;;;;;;;;5129677;27;20410;-78
2022/10/18 06:53:02;;;;;;;0.10;0.10;;;;;;;;;;5123344;27;20479;-79
2022/10/18 06:55:30;;;;;;;0.00;0.00;;;;;;;;;;5123080;27;20429;-79
2022/10/18 06:57:56;;;;;;;0.10;0.10;;;;;;;;;;5131150;27;20509;-80
2022/10/18 07:00:22;;;;;;;0.00;0.00;;;;;;;;;;5128896;28;20507;-79
2022/10/18 07:02:48;;;;;;;0.10;0.10;;;;;;;;;;5109297;28;20418;-78
2022/10/18 07:05:14;;;;;;;0.10;0.10;;;;;;;;;;5126665;28;20771;-78
2022/10/18 07:07:40;;;;;;;0.10;0.10;;;;;;;;;;5128925;28;20418;-78
2022/10/18 07:10:07;;;;;;;0.10;0.10;;;;;;;;;;5111547;28;20920;-79
2022/10/18 07:12:33;;;;;;;0.10;0.10;;;;;;;;;;5124641;28;20771;-78
2022/10/18 07:14:59;;;;;;;0.10;0.10;;;;;;;;;;5128126;28;20881;-79
2022/10/18 07:17:25;;;;;;;0.00;0.00;;;;;;;;;;5109175;28;20750;-79
2022/10/18 07:19:51;;;;;;;0.00;0.00;;;;;;;;;;5116652;28;20605;-79
2022/10/18 07:22:17;;;;;;;0.00;0.00;;;;;;;;;;5112214;28;20488;-78
2022/10/18 07:24:43;;;;;;;0.00;0.00;;;;;;;;;;5130482;28;20889;-78
2022/10/18 07:27:10;;;;;;;0.00;0.00;;;;;;;;;;5126932;28;20429;-78
2022/10/18 07:29:39;;;;;;;0.00;0.00;;;;;;;;;;5129546;28;20471;-78
2022/10/18 07:32:05;;;;;;;0.10;0.10;;;;;;;;;;5109306;28;20425;-78
2022/10/18 07:34:31;;;;;;;0.00;0.00;;;;;;;;;;5110758;28;20505;-79
2022/10/18 07:36:57;;;;;;;0.10;0.10;;;;;;;;;;5118676;28;20427;-79
2022/10/18 07:39:23;;;;;;;0.00;0.00;;;;;;;;;;5114210;28;20423;-79
2022/10/18 07:41:49;;;;;;;0.10;0.10;;;;;;;;;;5119282;28;20418;-79
2022/10/18 07:44:16;;;;;;;0.00;0.00;;;;;;;;;;5093341;28;20444;-79
2022/10/18 07:46:42;;;;;;;0.00;0.00;;;;;;;;;;5127137;28;20905;-79
2022/10/18 07:49:08;;;;;;;0.10;0.10;;;;;;;;;;5129861;28;20935;-80
2022/10/18 07:51:34;;;;;;;0.10;0.10;;;;;;;;;;5130111;28;20419;-80
2022/10/18 07:54:01;;;;;;;0.00;0.00;;;;;;;;;;5112886;28;20779;-79
2022/10/18 07:56:27;;;;;;;0.10;0.10;;;;;;;;;;5102833;28;20418;-80
2022/10/18 07:58:53;;;;;;;0.10;0.10;;;;;;;;;;5133634;27;20427;-79
2022/10/18 08:01:21;;;;;;;0.10;0.10;;;;;;;;;;5148148;27;20445;-78
2022/10/18 08:03:47;;;;;;;0.10;0.10;;;;;;;;;;5119077;27;20466;-79
2022/10/18 08:06:15;;;;;;;0.00;0.00;;;;;;;;;;5153547;27;20416;-76
2022/10/18 08:08:41;;;;;;;0.10;0.10;;;;;;;;;;5145225;27;20511;-83
2022/10/18 08:11:09;;;;;;;0.10;0.10;;;;;;;;;;5132567;27;20478;-83
2022/10/18 08:13:35;;;;;;;0.00;0.00;;;;;;;;;;5135380;27;20466;-86
2022/10/18 08:16:02;;;;;;;0.10;0.10;;;;;;;;;;5139948;27;20416;-84
2022/10/18 08:18:28;;;;;;;0.00;0.00;;;;;;;;;;5140468;27;20496;-83
2022/10/18 08:20:54;;;;;;;0.00;0.00;;;;;;;;;;5137286;27;20477;-82
2022/10/18 08:23:20;;;;;;;0.00;0.00;;;;;;;;;;5120265;27;20456;-82
2022/10/18 08:25:46;;;;;;;0.00;0.00;;;;;;;;;;5149156;27;20436;-81
2022/10/18 08:28:12;;;;;;;0.10;0.10;;;;;;;;;;5131788;27;20421;-84
2022/10/18 08:30:39;;;;;;;0.10;0.10;;;;;;;;;;5112495;27;20423;-81
2022/10/18 08:33:05;;;;;;;0.00;0.00;;;;;;;;;;5122562;27;20767;-82
2022/10/18 08:35:31;;;;;;;0.10;0.10;;;;;;;;;;5120015;27;20442;-81
2022/10/18 08:37:58;;;;;;;0.00;0.00;;;;;;;;;;5125639;27;20419;-86
2022/10/18 08:40:26;;;;;;;0.00;0.00;;;;;;;;;;5116422;27;20407;-87
2022/10/18 08:43:02;;;;;;;0.00;0.00;;;;;;;;;;5137523;27;20445;-86
2022/10/18 08:45:29;;;;;;;0.20;0.20;;;;;;;;;;5128655;27;20425;-84
2022/10/18 08:47:56;;;;;;;0.10;0.10;;;;;;;;;;5134744;27;20444;-84
2022/10/18 08:50:25;;;;;;;0.10;0.10;;;;;;;;;;5134981;27;20425;-83
2022/10/18 08:53:10;;;;;;;0.10;0.10;;;;;;;;;;5136456;27;20637;-84
2022/10/18 08:55:49;;;;;;;0.10;0.10;;;;;;;;;;5146702;27;20423;-84
2022/10/18 08:58:15;;;;;;;0.10;0.10;;;;;;;;;;5131629;27;20442;-84
2022/10/18 09:00:45;;;;;;;0.03;0.03;;;;;;;;;;5154000;27;20759;-85
2022/10/18 09:03:25;;;;;;;0.10;0.10;;;;;;;;;;5136417;27;21027;-80
2022/10/18 09:05:52;;;;;;;0.10;0.10;;;;;;;;;;5149963;27;20485;-81
2022/10/18 09:08:37;;;;;;;0.10;0.10;;;;;;;;;;5151368;27;20499;-80
2022/10/18 09:11:18;;;;;;;0.20;0.20;;;;;;;;;;5137885;27;20538;-81
2022/10/18 09:14:03;;;;;;;0.20;0.20;;;;;;;;;;5132124;27;20421;-81
2022/10/18 09:16:47;;;;;;;0.60;0.30;;;;;;;;;;5133964;27;20433;-81
2022/10/18 09:19:27;;;;;;;0.03;0.03;;;;;;;;;;5138136;27;20414;-81
2022/10/18 09:21:55;;;;;;;0.10;0.10;;;;;;;;;;5129502;27;20423;-81
2022/10/18 09:24:44;;;;;;;0.32;0.32;;;;;;;;;;5147163;27;20424;-81
2022/10/18 09:27:17;;;;;;;0.10;0.10;;;;;;;;;;5121664;27;20927;-81
2022/10/18 09:30:02;;;;;;;0.10;0.10;;;;;;;;;;5116360;27;20431;-81
2022/10/18 09:32:48;;;;;;;0.05;0.05;;;;;;;;;;5131980;27;20422;-81
2022/10/18 09:35:22;;;;;;;1.30;0.60;;;;;;;;;;5136032;27;21194;-80
2022/10/18 09:37:49;;;;;;;0.90;0.40;;;;;;;;;;5141488;27;20432;-80
2022/10/18 09:40:27;;;;;;;0.10;0.10;;;;;;;;;;5129695;27;20424;-80
2022/10/18 09:43:06;;;;;;;0.10;0.10;;;;;;;;;;5135070;27;20417;-79
2022/10/18 09:45:37;;;;;;;0.10;0.10;;;;;;;;;;5135481;27;20743;-79
2022/10/18 09:48:03;;;;;;;0.00;0.00;;;;;;;;;;5133517;27;20439;-80
2022/10/18 09:50:35;;;;;;;0.00;0.00;;;;;;;;;;5134230;27;20812;-79
2022/10/18 09:53:34;;;;;;;0.10;0.10;;;;;;;;;;5148133;27;20422;-81
2022/10/18 09:56:05;;;;;;;0.10;0.10;;;;;;;;;;5128760;27;20417;-80
2022/10/18 09:58:47;;;;;;;0.10;0.10;;;;;;;;;;5124229;27;20429;-79
2022/10/18 10:01:16;;;;;;;0.10;0.10;;;;;;;;;;5134525;27;20909;-80
2022/10/18 10:03:42;;;;;;;0.50;0.50;;;;;;;;;;5147331;27;20550;-80
2022/10/18 10:06:11;;;;;;;1.10;0.40;;;;;;;;;;5148737;27;20427;-79
2022/10/18 10:08:41;;;;;;;0.25;0.25;;;;;;;;;;5133611;27;20422;-80
2022/10/18 10:11:25;;;;;;;0.00;0.00;;;;;;;;;;5150998;27;20791;-81
2022/10/18 10:13:51;;;;;;;0.20;0.20;;;;;;;;;;5151809;27;20441;-81
2022/10/18 10:16:17;;;;;;;0.20;0.20;;;;;;;;;;5149699;27;20409;-80
2022/10/18 10:18:43;;;;;;;0.10;0.10;;;;;;;;;;5133963;27;20417;-80
2022/10/18 10:21:14;;;;;;;0.10;0.10;;;;;;;;;;5151314;27;20834;-79
2022/10/18 10:23:50;;;;;;;0.10;0.10;;;;;;;;;;5150964;27;20413;-79
2022/10/18 10:26:42;;;;;;;0.10;0.10;;;;;;;;;;5151494;27;20911;-79
2022/10/18 10:29:27;;;;;;;0.10;0.10;;;;;;;;;;5129258;27;20414;-79
2022/10/18 10:32:03;;;;;;;0.10;0.10;;;;;;;;;;5150678;27;20891;-79
2022/10/18 10:34:30;;;;;;;0.10;0.10;;;;;;;;;;5116904;27;20462;-79
2022/10/18 10:36:56;;;;;;;0.30;0.30;;;;;;;;;;5133222;27;20926;-79
2022/10/18 10:39:23;;;;;;;0.10;0.10;;;;;;;;;;5131801;27;20424;-80
2022/10/18 10:41:49;;;;;;;0.30;0.30;;;;;;;;;;5151076;27;20441;-80
2022/10/18 10:44:17;;;;;;;0.10;0.10;;;;;;;;;;5133709;27;20424;-80
2022/10/18 10:46:43;;;;;;;0.10;0.10;;;;;;;;;;5148153;27;20421;-80
2022/10/18 10:49:17;;;;;;;0.10;0.10;;;;;;;;;;5150922;27;20470;-79
2022/10/18 10:51:44;;;;;;;0.20;0.20;;;;;;;;;;5150442;27;20421;-78
2022/10/18 10:54:14;;;;;;;0.10;0.10;;;;;;;;;;5129877;27;20429;-79
2022/10/18 10:56:52;;;;;;;0.10;0.10;;;;;;;;;;5128239;27;20415;-80
2022/10/18 10:59:19;;;;;;;0.10;0.10;;;;;;;;;;5115114;27;20499;-78
2022/10/18 11:01:50;;;;;;;0.00;0.00;;;;;;;;;;5131571;27;21068;-80
2022/10/18 11:04:27;;;;;;;0.00;0.00;;;;;;;;;;5145918;27;20763;-79
2022/10/18 11:06:57;;;;;;;0.90;0.50;;;;;;;;;;5127512;27;20430;-79
2022/10/18 11:09:46;;;;;;;0.10;0.10;;;;;;;;;;5135924;27;20426;-79
2022/10/18 11:12:21;;;;;;;0.10;0.10;;;;;;;;;;5111379;28;20927;-79
2022/10/18 11:14:54;;;;;;;0.10;0.10;;;;;;;;;;5142365;27;20514;-80
2022/10/18 11:17:20;;;;;;;0.10;0.10;;;;;;;;;;5148224;27;20425;-82
2022/10/18 11:20:02;;;;;;;0.00;0.00;;;;;;;;;;5138832;27;20457;-80
2022/10/18 11:22:31;;;;;;;0.10;0.10;;;;;;;;;;5140961;27;20862;-78
2022/10/18 11:24:57;;;;;;;0.10;0.10;;;;;;;;;;5139562;27;20944;-77
2022/10/18 11:27:50;;;;;;;0.10;0.10;;;;;;;;;;5148945;27;20492;-78
2022/10/18 11:30:19;;;;;;;0.07;0.07;;;;;;;;;;5138422;27;20431;-78
2022/10/18 11:32:53;;;;;;;0.10;0.10;;;;;;;;;;5141193;27;20505;-78
2022/10/18 11:35:22;;;;;;;0.40;0.40;;;;;;;;;;5138503;27;20456;-78
2022/10/18 11:38:06;;;;;;;0.10;0.10;;;;;;;;;;5137678;27;20895;-77
2022/10/18 11:40:39;;;;;;;0.00;0.00;;;;;;;;;;5142592;27;20426;-79
2022/10/18 11:43:05;;;;;;;0.10;0.10;;;;;;;;;;5153032;27;20919;-77
2022/10/18 11:45:57;;;;;;;0.10;0.10;;;;;;;;;;5148030;27;20470;-79
2022/10/18 11:48:23;;;;;;;0.10;0.10;;;;;;;;;;5127430;27;20443;-78
2022/10/18 11:50:49;;;;;;;0.20;0.20;;;;;;;;;;5142025;27;20793;-81
2022/10/18 11:53:24;;;;;;;0.10;0.10;;;;;;;;;;5140042;27;20460;-80
2022/10/18 11:56:02;;;;;;;0.10;0.10;;;;;;;;;;5136885;27;20482;-82
2022/10/18 11:59:04;;;;;;;0.10;0.10;;;;;;;;;;5120462;27;20427;-82
2022/10/18 12:01:30;;;;;;;0.10;0.10;;;;;;;;;;5062823;28;20455;-83
2022/10/18 12:04:14;;;;;;;0.10;0.10;;;;;;;;;;5127505;27;20429;-79
2022/10/18 12:06:42;;;;;;;0.10;0.10;;;;;;;;;;5153235;27;20448;-82
2022/10/18 12:09:27;;;;;;;0.00;0.00;;;;;;;;;;5152952;27;20552;-84
2022/10/18 12:12:00;;;;;;;0.10;0.10;;;;;;;;;;5137763;27;20413;-80
2022/10/18 12:14:29;;;;;;;0.10;0.10;;;;;;;;;;5130434;27;20516;-81
2022/10/18 12:16:57;;;;;;;0.10;0.10;;;;;;;;;;5147877;27;20420;-82
2022/10/18 12:19:26;;;;;;;0.10;0.10;;;;;;;;;;5126989;27;20432;-82
2022/10/18 12:21:53;;;;;;;0.00;0.00;;;;;;;;;;5128330;27;20422;-81
2022/10/18 12:24:24;;;;;;;0.10;0.10;;;;;;;;;;5126119;27;20461;-82
2022/10/18 12:26:53;;;;;;;0.10;0.10;;;;;;;;;;5151784;27;20417;-81
2022/10/18 12:29:25;;;;;;;0.00;0.00;;;;;;;;;;5147031;27;20418;-86
2022/10/18 12:32:02;;;;;;;0.10;0.10;;;;;;;;;;5125221;27;20425;-83
2022/10/18 12:34:34;;;;;;;0.10;0.10;;;;;;;;;;5153424;27;20413;-87
2022/10/18 12:37:03;;;;;;;0.10;0.10;;;;;;;;;;5136324;27;20469;-87
2022/10/18 12:39:34;;;;;;;0.10;0.10;;;;;;;;;;5153639;27;20431;-89
2022/10/18 12:42:01;;;;;;;0.10;0.10;;;;;;;;;;5133927;27;20444;-82
2022/10/18 12:44:31;;;;;;;0.03;0.03;;;;;;;;;;5110942;27;20457;-85
2022/10/18 12:47:01;;;;;;;0.80;0.70;;;;;;;;;;5133701;27;20493;-85
2022/10/18 12:49:29;;;;;;;0.00;0.00;;;;;;;;;;5133138;27;20812;-81
2022/10/18 12:52:03;;;;;;;0.10;0.10;;;;;;;;;;5134792;27;20471;-82
2022/10/18 12:54:34;;;;;;;0.10;0.10;;;;;;;;;;5141482;27;20763;-83
2022/10/18 12:57:01;;;;;;;0.10;0.10;;;;;;;;;;5151536;27;20445;-82
2022/10/18 12:59:27;;;;;;;0.10;0.10;;;;;;;;;;5149535;27;20413;-82
2022/10/18 13:01:53;;;;;;;0.10;0.10;;;;;;;;;;5130681;27;20411;-82
2022/10/18 13:04:28;;;;;;;0.10;0.10;;;;;;;;;;5143822;27;20425;-81
2022/10/18 13:07:01;;;;;;;0.17;0.17;;;;;;;;;;5148815;27;20494;-81
2022/10/18 13:09:29;;;;;;;0.10;0.10;;;;;;;;;;5136206;27;20944;-82
2022/10/18 13:12:15;;;;;;;0.10;0.10;;;;;;;;;;5125088;27;20935;-81
2022/10/18 13:15:00;;;;;;;0.10;0.10;;;;;;;;;;5124588;27;20475;-81
2022/10/18 13:17:35;;;;;;;0.10;0.10;;;;;;;;;;5155530;27;20415;-81
2022/10/18 13:20:01;;;;;;;0.13;0.13;;;;;;;;;;5156746;27;20411;-81
2022/10/18 13:22:27;;;;;;;0.20;0.20;;;;;;;;;;5154856;27;20419;-81
2022/10/18 13:25:00;;;;;;;0.10;0.10;;;;;;;;;;5152466;27;20444;-81
2022/10/18 13:27:45;;;;;;;0.10;0.10;;;;;;;;;;5151837;27;20443;-80
2022/10/18 13:30:14;;;;;;;0.20;0.20;;;;;;;;;;5160343;27;20476;-86
2022/10/18 13:32:52;;;;;;;0.20;0.20;;;;;;;;;;5152402;27;20498;-83
2022/10/18 13:35:51;;;;;;;0.10;0.10;;;;;;;;;;5133111;27;20492;-84
2022/10/18 13:38:37;;;;;;;0.00;0.00;;;;;;;;;;5083026;27;20425;-84
2022/10/18 13:41:05;;;;;;;0.10;0.10;;;;;;;;;;5143620;27;20766;-84
2022/10/18 13:43:50;;;;;;;0.10;0.10;;;;;;;;;;5134569;27;20777;-82
2022/10/18 13:46:16;;;;;;;0.10;0.10;;;;;;;;;;5140327;27;20417;-87
2022/10/18 13:48:42;;;;;;;0.00;0.00;;;;;;;;;;5141626;27;20411;-82
2022/10/18 13:51:21;;;;;;;0.00;0.00;;;;;;;;;;5134371;27;20800;-82
2022/10/18 13:53:47;;;;;;;0.03;0.03;;;;;;;;;;5137535;27;20463;-84
2022/10/18 13:56:18;;;;;;;0.00;0.00;;;;;;;;;;5146436;27;20740;-83
2022/10/18 13:59:07;;;;;;;0.10;0.10;;;;;;;;;;5140392;27;20415;-83
2022/10/18 14:01:52;;;;;;;0.00;0.00;;;;;;;;;;5154962;27;20430;-82
2022/10/18 14:04:28;;;;;;;0.10;0.10;;;;;;;;;;5154811;27;20415;-83
2022/10/18 14:06:57;;;;;;;0.10;0.10;;;;;;;;;;5153353;27;20431;-83
2022/10/18 14:09:30;;;;;;;0.10;0.10;;;;;;;;;;5154601;27;20869;-82
2022/10/18 14:12:00;;;;;;;0.10;0.10;;;;;;;;;;5153190;27;20913;-83
2022/10/18 14:14:35;;;;;;;0.10;0.10;;;;;;;;;;5133055;27;20419;-83
2022/10/18 14:17:01;;;;;;;0.10;0.10;;;;;;;;;;5150886;27;20431;-82
2022/10/18 14:19:30;;;;;;;0.00;0.00;;;;;;;;;;5147911;27;20742;-81
2022/10/18 14:22:03;;;;;;;0.10;0.10;;;;;;;;;;5151770;27;20431;-80
2022/10/18 14:24:30;;;;;;;0.10;0.10;;;;;;;;;;5154209;27;20407;-84
2022/10/18 14:27:12;;;;;;;0.10;0.10;;;;;;;;;;5144333;27;20979;-83
2022/10/18 14:29:39;;;;;;;0.10;0.10;;;;;;;;;;5127523;27;20419;-82
2022/10/18 14:32:09;;;;;;;0.10;0.10;;;;;;;;;;5148117;27;20455;-82
2022/10/18 14:34:35;;;;;;;0.10;0.10;;;;;;;;;;5141202;27;20426;-81
2022/10/18 14:37:01;;;;;;;0.10;0.10;;;;;;;;;;5129649;27;20423;-82
2022/10/18 14:39:31;;;;;;;0.10;0.10;;;;;;;;;;5131498;27;20901;-81
2022/10/18 14:41:57;;;;;;;0.10;0.10;;;;;;;;;;5118311;27;20838;-82
2022/10/18 14:44:26;;;;;;;0.10;0.10;;;;;;;;;;5143256;27;20434;-82
2022/10/18 14:47:11;;;;;;;0.10;0.10;;;;;;;;;;5133625;27;20512;-83
2022/10/18 14:49:42;;;;;;;0.08;0.08;;;;;;;;;;5138975;27;20430;-83
2022/10/18 14:52:13;;;;;;;0.03;0.03;;;;;;;;;;5145003;27;20423;-83
2022/10/18 14:54:39;;;;;;;0.00;0.00;;;;;;;;;;5132960;27;20824;-83
2022/10/18 14:57:06;;;;;;;0.10;0.10;;;;;;;;;;5151770;27;20415;-82
2022/10/18 14:59:36;;;;;;;0.10;0.10;;;;;;;;;;5148011;27;20410;-82